sensor_id;sensor_type;location;lat;lon;timestamp;P1;durP1;ratioP1;P2;durP2;ratioP2
25503;SDS011;13410;52.114;5.718;2023-04-24T00:01:49;2.17;;;1.98;;
25503;SDS011;13410;52.114;5.718;2023-04-24T00:04:15;4.25;;;2.15;;
25503;SDS011;13410;52.114;5.718;2023-04-24T00:06:42;3.60;;;2.30;;
25503;SDS011;13410;52.114;5.718;2023-04-24T00:09:08;3.92;;;2.85;;
25503;SDS011;13410;52.114;5.718;2023-04-24T00:11:37;6.32;;;3.20;;
25503;SDS011;13410;52.114;5.718;2023-04-24T00:14:02;3.70;;;3.13;;
25503;SDS011;13410;52.114;5.718;2023-04-24T00:16:28;6.22;;;3.53;;
25503;SDS011;13410;52.114;5.718;2023-04-24T00:18:54;4.97;;;3.78;;
25503;SDS011;13410;52.114;5.718;2023-04-24T00:21:20;4.05;;;3.42;;
25503;SDS011;13410;52.114;5.718;2023-04-24T00:23:46;4.50;;;3.25;;
25503;SDS011;13410;52.114;5.718;2023-04-24T00:26:12;4.82;;;3.70;;
25503;SDS011;13410;52.114;5.718;2023-04-24T00:28:38;6.43;;;3.90;;
25503;SDS011;13410;52.114;5.718;2023-04-24T00:31:04;4.82;;;3.60;;
25503;SDS011;13410;52.114;5.718;2023-04-24T00:33:29;4.78;;;3.40;;
25503;SDS011;13410;52.114;5.718;2023-04-24T00:35:55;4.20;;;3.30;;
25503;SDS011;13410;52.114;5.718;2023-04-24T00:38:20;4.57;;;3.83;;
25503;SDS011;13410;52.114;5.718;2023-04-24T00:40:47;4.80;;;3.60;;
25503;SDS011;13410;52.114;5.718;2023-04-24T00:43:14;6.85;;;3.85;;
25503;SDS011;13410;52.114;5.718;2023-04-24T00:45:40;5.75;;;3.97;;
25503;SDS011;13410;52.114;5.718;2023-04-24T00:48:06;5.35;;;3.97;;
25503;SDS011;13410;52.114;5.718;2023-04-24T00:50:32;4.95;;;3.97;;
25503;SDS011;13410;52.114;5.718;2023-04-24T00:52:58;4.65;;;3.47;;
25503;SDS011;13410;52.114;5.718;2023-04-24T00:55:24;4.93;;;3.60;;
25503;SDS011;13410;52.114;5.718;2023-04-24T00:57:50;5.03;;;3.50;;
25503;SDS011;13410;52.114;5.718;2023-04-24T01:00:16;5.28;;;4.00;;
25503;SDS011;13410;52.114;5.718;2023-04-24T01:02:43;5.00;;;3.88;;
25503;SDS011;13410;52.114;5.718;2023-04-24T01:05:10;5.97;;;4.07;;
25503;SDS011;13410;52.114;5.718;2023-04-24T01:07:40;6.50;;;3.97;;
25503;SDS011;13410;52.114;5.718;2023-04-24T01:10:10;4.93;;;4.13;;
25503;SDS011;13410;52.114;5.718;2023-04-24T01:12:36;7.43;;;3.97;;
25503;SDS011;13410;52.114;5.718;2023-04-24T01:15:02;5.05;;;4.00;;
25503;SDS011;13410;52.114;5.718;2023-04-24T01:17:28;5.15;;;4.03;;
25503;SDS011;13410;52.114;5.718;2023-04-24T01:19:54;8.63;;;4.65;;
25503;SDS011;13410;52.114;5.718;2023-04-24T01:22:22;6.28;;;5.00;;
25503;SDS011;13410;52.114;5.718;2023-04-24T01:24:47;7.20;;;4.78;;
25503;SDS011;13410;52.114;5.718;2023-04-24T01:27:13;5.28;;;4.47;;
25503;SDS011;13410;52.114;5.718;2023-04-24T01:29:39;7.47;;;4.93;;
25503;SDS011;13410;52.114;5.718;2023-04-24T01:32:05;6.38;;;4.68;;
25503;SDS011;13410;52.114;5.718;2023-04-24T01:34:31;6.43;;;4.88;;
25503;SDS011;13410;52.114;5.718;2023-04-24T01:36:57;6.35;;;5.28;;
25503;SDS011;13410;52.114;5.718;2023-04-24T01:39:23;6.53;;;5.20;;
25503;SDS011;13410;52.114;5.718;2023-04-24T01:41:50;5.40;;;4.63;;
25503;SDS011;13410;52.114;5.718;2023-04-24T01:44:17;6.32;;;5.35;;
25503;SDS011;13410;52.114;5.718;2023-04-24T01:46:43;6.40;;;5.00;;
25503;SDS011;13410;52.114;5.718;2023-04-24T01:49:09;6.13;;;4.88;;
25503;SDS011;13410;52.114;5.718;2023-04-24T01:51:35;5.40;;;4.88;;
25503;SDS011;13410;52.114;5.718;2023-04-24T01:54:00;6.85;;;4.60;;
25503;SDS011;13410;52.114;5.718;2023-04-24T01:56:26;5.10;;;4.57;;
25503;SDS011;13410;52.114;5.718;2023-04-24T01:58:54;5.40;;;4.80;;
25503;SDS011;13410;52.114;5.718;2023-04-24T02:01:21;5.43;;;4.70;;
25503;SDS011;13410;52.114;5.718;2023-04-24T02:03:48;6.95;;;4.57;;
25503;SDS011;13410;52.114;5.718;2023-04-24T02:06:13;5.68;;;4.38;;
25503;SDS011;13410;52.114;5.718;2023-04-24T02:08:39;4.88;;;4.32;;
25503;SDS011;13410;52.114;5.718;2023-04-24T02:11:05;5.05;;;4.55;;
25503;SDS011;13410;52.114;5.718;2023-04-24T02:13:31;5.55;;;4.93;;
25503;SDS011;13410;52.114;5.718;2023-04-24T02:15:57;5.55;;;4.90;;
25503;SDS011;13410;52.114;5.718;2023-04-24T02:18:23;5.50;;;4.93;;
25503;SDS011;13410;52.114;5.718;2023-04-24T02:20:49;5.90;;;5.30;;
25503;SDS011;13410;52.114;5.718;2023-04-24T02:23:14;5.38;;;4.85;;
25503;SDS011;13410;52.114;5.718;2023-04-24T02:25:40;6.72;;;4.95;;
25503;SDS011;13410;52.114;5.718;2023-04-24T02:28:06;5.72;;;4.80;;
25503;SDS011;13410;52.114;5.718;2023-04-24T02:30:31;5.32;;;4.82;;
25503;SDS011;13410;52.114;5.718;2023-04-24T02:32:57;5.65;;;4.93;;
25503;SDS011;13410;52.114;5.718;2023-04-24T02:35:22;6.25;;;5.05;;
25503;SDS011;13410;52.114;5.718;2023-04-24T02:37:48;7.60;;;5.47;;
25503;SDS011;13410;52.114;5.718;2023-04-24T02:40:14;6.32;;;5.47;;
25503;SDS011;13410;52.114;5.718;2023-04-24T02:42:39;7.15;;;6.45;;
25503;SDS011;13410;52.114;5.718;2023-04-24T02:45:05;8.23;;;6.63;;
25503;SDS011;13410;52.114;5.718;2023-04-24T02:47:31;6.22;;;5.63;;
25503;SDS011;13410;52.114;5.718;2023-04-24T02:49:56;6.25;;;5.25;;
25503;SDS011;13410;52.114;5.718;2023-04-24T02:52:22;6.28;;;5.28;;
25503;SDS011;13410;52.114;5.718;2023-04-24T02:54:48;6.75;;;4.68;;
25503;SDS011;13410;52.114;5.718;2023-04-24T02:57:13;7.00;;;5.30;;
25503;SDS011;13410;52.114;5.718;2023-04-24T02:59:39;7.35;;;4.95;;
25503;SDS011;13410;52.114;5.718;2023-04-24T03:02:05;5.30;;;4.45;;
25503;SDS011;13410;52.114;5.718;2023-04-24T03:04:31;6.15;;;4.35;;
25503;SDS011;13410;52.114;5.718;2023-04-24T03:06:56;8.00;;;4.43;;
25503;SDS011;13410;52.114;5.718;2023-04-24T03:09:22;5.32;;;3.92;;
25503;SDS011;13410;52.114;5.718;2023-04-24T03:11:48;4.03;;;3.40;;
25503;SDS011;13410;52.114;5.718;2023-04-24T03:14:14;5.75;;;3.15;;
25503;SDS011;13410;52.114;5.718;2023-04-24T03:16:40;4.07;;;2.63;;
25503;SDS011;13410;52.114;5.718;2023-04-24T03:19:06;4.05;;;2.10;;
25503;SDS011;13410;52.114;5.718;2023-04-24T03:21:31;3.10;;;2.28;;
25503;SDS011;13410;52.114;5.718;2023-04-24T03:23:57;3.75;;;2.40;;
25503;SDS011;13410;52.114;5.718;2023-04-24T03:26:23;3.35;;;2.50;;
25503;SDS011;13410;52.114;5.718;2023-04-24T03:28:48;4.00;;;2.40;;
25503;SDS011;13410;52.114;5.718;2023-04-24T03:31:14;5.30;;;3.30;;
25503;SDS011;13410;52.114;5.718;2023-04-24T03:33:40;5.00;;;3.95;;
25503;SDS011;13410;52.114;5.718;2023-04-24T03:36:06;6.55;;;4.45;;
25503;SDS011;13410;52.114;5.718;2023-04-24T03:38:31;4.60;;;3.90;;
25503;SDS011;13410;52.114;5.718;2023-04-24T03:40:57;5.03;;;4.30;;
25503;SDS011;13410;52.114;5.718;2023-04-24T03:43:23;5.78;;;4.80;;
25503;SDS011;13410;52.114;5.718;2023-04-24T03:45:48;5.70;;;4.88;;
25503;SDS011;13410;52.114;5.718;2023-04-24T03:48:14;6.55;;;5.05;;
25503;SDS011;13410;52.114;5.718;2023-04-24T03:50:39;6.40;;;5.28;;
25503;SDS011;13410;52.114;5.718;2023-04-24T03:53:05;6.28;;;5.05;;
25503;SDS011;13410;52.114;5.718;2023-04-24T03:55:31;7.88;;;5.63;;
25503;SDS011;13410;52.114;5.718;2023-04-24T03:57:56;6.85;;;5.30;;
25503;SDS011;13410;52.114;5.718;2023-04-24T04:00:22;7.47;;;5.10;;
25503;SDS011;13410;52.114;5.718;2023-04-24T04:02:47;6.32;;;4.80;;
25503;SDS011;13410;52.114;5.718;2023-04-24T04:05:13;6.03;;;4.55;;
25503;SDS011;13410;52.114;5.718;2023-04-24T04:07:38;5.63;;;4.38;;
25503;SDS011;13410;52.114;5.718;2023-04-24T04:10:04;4.15;;;3.15;;
25503;SDS011;13410;52.114;5.718;2023-04-24T04:12:31;4.63;;;2.85;;
25503;SDS011;13410;52.114;5.718;2023-04-24T04:14:57;4.13;;;2.90;;
25503;SDS011;13410;52.114;5.718;2023-04-24T04:17:23;3.72;;;2.60;;
25503;SDS011;13410;52.114;5.718;2023-04-24T04:19:48;3.95;;;2.30;;
25503;SDS011;13410;52.114;5.718;2023-04-24T04:22:14;4.38;;;2.45;;
25503;SDS011;13410;52.114;5.718;2023-04-24T04:24:40;2.58;;;2.10;;
25503;SDS011;13410;52.114;5.718;2023-04-24T04:27:05;3.17;;;2.10;;
25503;SDS011;13410;52.114;5.718;2023-04-24T04:29:31;2.85;;;2.13;;
25503;SDS011;13410;52.114;5.718;2023-04-24T04:31:57;3.22;;;2.20;;
25503;SDS011;13410;52.114;5.718;2023-04-24T04:34:23;3.45;;;2.17;;
25503;SDS011;13410;52.114;5.718;2023-04-24T04:36:49;2.70;;;2.20;;
25503;SDS011;13410;52.114;5.718;2023-04-24T04:39:15;2.95;;;2.30;;
25503;SDS011;13410;52.114;5.718;2023-04-24T04:41:41;6.20;;;2.13;;
25503;SDS011;13410;52.114;5.718;2023-04-24T04:44:07;2.28;;;1.80;;
25503;SDS011;13410;52.114;5.718;2023-04-24T04:46:33;1.60;;;1.40;;
25503;SDS011;13410;52.114;5.718;2023-04-24T04:48:59;1.75;;;1.10;;
25503;SDS011;13410;52.114;5.718;2023-04-24T04:51:26;1.92;;;0.90;;
25503;SDS011;13410;52.114;5.718;2023-04-24T04:53:52;2.03;;;0.77;;
25503;SDS011;13410;52.114;5.718;2023-04-24T04:56:18;1.77;;;0.90;;
25503;SDS011;13410;52.114;5.718;2023-04-24T04:58:43;1.30;;;1.00;;
25503;SDS011;13410;52.114;5.718;2023-04-24T05:01:09;1.77;;;0.82;;
25503;SDS011;13410;52.114;5.718;2023-04-24T05:03:35;1.20;;;0.80;;
25503;SDS011;13410;52.114;5.718;2023-04-24T05:06:01;3.90;;;2.72;;
25503;SDS011;13410;52.114;5.718;2023-04-24T05:08:27;8.65;;;5.40;;
25503;SDS011;13410;52.114;5.718;2023-04-24T05:10:52;6.05;;;2.60;;
25503;SDS011;13410;52.114;5.718;2023-04-24T05:13:18;3.63;;;2.70;;
25503;SDS011;13410;52.114;5.718;2023-04-24T05:15:44;4.25;;;3.55;;
25503;SDS011;13410;52.114;5.718;2023-04-24T05:18:09;4.03;;;2.97;;
25503;SDS011;13410;52.114;5.718;2023-04-24T05:20:35;5.28;;;2.85;;
25503;SDS011;13410;52.114;5.718;2023-04-24T05:23:00;3.72;;;3.05;;
25503;SDS011;13410;52.114;5.718;2023-04-24T05:25:26;3.13;;;2.83;;
25503;SDS011;13410;52.114;5.718;2023-04-24T05:27:52;2.88;;;2.60;;
25503;SDS011;13410;52.114;5.718;2023-04-24T05:30:18;3.03;;;2.22;;
25503;SDS011;13410;52.114;5.718;2023-04-24T05:32:44;3.95;;;2.35;;
25503;SDS011;13410;52.114;5.718;2023-04-24T05:35:10;2.90;;;2.38;;
25503;SDS011;13410;52.114;5.718;2023-04-24T05:37:37;4.18;;;2.40;;
25503;SDS011;13410;52.114;5.718;2023-04-24T05:40:02;4.07;;;2.50;;
25503;SDS011;13410;52.114;5.718;2023-04-24T05:42:30;3.55;;;2.53;;
25503;SDS011;13410;52.114;5.718;2023-04-24T05:44:56;5.15;;;3.10;;
25503;SDS011;13410;52.114;5.718;2023-04-24T05:47:21;5.28;;;4.22;;
25503;SDS011;13410;52.114;5.718;2023-04-24T05:49:47;5.45;;;4.35;;
25503;SDS011;13410;52.114;5.718;2023-04-24T05:52:13;4.50;;;3.42;;
25503;SDS011;13410;52.114;5.718;2023-04-24T05:54:39;5.88;;;3.58;;
25503;SDS011;13410;52.114;5.718;2023-04-24T05:57:04;4.35;;;2.92;;
25503;SDS011;13410;52.114;5.718;2023-04-24T05:59:33;3.85;;;2.90;;
25503;SDS011;13410;52.114;5.718;2023-04-24T06:02:00;2.72;;;2.38;;
25503;SDS011;13410;52.114;5.718;2023-04-24T06:04:25;2.72;;;2.20;;
25503;SDS011;13410;52.114;5.718;2023-04-24T06:06:51;3.50;;;2.50;;
25503;SDS011;13410;52.114;5.718;2023-04-24T06:09:20;3.42;;;2.80;;
25503;SDS011;13410;52.114;5.718;2023-04-24T06:11:49;4.15;;;3.00;;
25503;SDS011;13410;52.114;5.718;2023-04-24T06:14:17;3.15;;;2.50;;
25503;SDS011;13410;52.114;5.718;2023-04-24T06:16:43;3.55;;;2.88;;
25503;SDS011;13410;52.114;5.718;2023-04-24T06:19:09;4.15;;;2.83;;
25503;SDS011;13410;52.114;5.718;2023-04-24T06:21:34;4.00;;;2.90;;
25503;SDS011;13410;52.114;5.718;2023-04-24T06:24:00;3.85;;;2.92;;
25503;SDS011;13410;52.114;5.718;2023-04-24T06:26:26;5.53;;;2.90;;
25503;SDS011;13410;52.114;5.718;2023-04-24T06:28:51;2.80;;;2.25;;
25503;SDS011;13410;52.114;5.718;2023-04-24T06:31:19;4.82;;;2.60;;
25503;SDS011;13410;52.114;5.718;2023-04-24T06:33:45;8.18;;;5.00;;
25503;SDS011;13410;52.114;5.718;2023-04-24T06:36:11;6.90;;;4.75;;
25503;SDS011;13410;52.114;5.718;2023-04-24T06:38:37;8.07;;;5.30;;
25503;SDS011;13410;52.114;5.718;2023-04-24T06:41:03;6.63;;;4.72;;
25503;SDS011;13410;52.114;5.718;2023-04-24T06:43:30;7.75;;;5.30;;
25503;SDS011;13410;52.114;5.718;2023-04-24T06:45:56;7.82;;;5.32;;
25503;SDS011;13410;52.114;5.718;2023-04-24T06:48:23;10.52;;;6.60;;
25503;SDS011;13410;52.114;5.718;2023-04-24T06:50:49;10.55;;;7.53;;
25503;SDS011;13410;52.114;5.718;2023-04-24T06:53:14;7.43;;;5.60;;
25503;SDS011;13410;52.114;5.718;2023-04-24T06:55:40;5.40;;;3.50;;
25503;SDS011;13410;52.114;5.718;2023-04-24T06:58:06;5.40;;;3.92;;
25503;SDS011;13410;52.114;5.718;2023-04-24T07:00:31;5.18;;;3.72;;
25503;SDS011;13410;52.114;5.718;2023-04-24T07:02:57;3.60;;;2.20;;
25503;SDS011;13410;52.114;5.718;2023-04-24T07:05:22;4.35;;;2.80;;
25503;SDS011;13410;52.114;5.718;2023-04-24T07:07:48;4.68;;;2.90;;
25503;SDS011;13410;52.114;5.718;2023-04-24T07:10:15;5.35;;;2.40;;
25503;SDS011;13410;52.114;5.718;2023-04-24T07:12:41;2.97;;;2.30;;
25503;SDS011;13410;52.114;5.718;2023-04-24T07:15:09;4.20;;;2.40;;
25503;SDS011;13410;52.114;5.718;2023-04-24T07:17:35;6.75;;;3.20;;
25503;SDS011;13410;52.114;5.718;2023-04-24T07:20:03;10.65;;;6.25;;
25503;SDS011;13410;52.114;5.718;2023-04-24T07:22:29;12.05;;;7.22;;
25503;SDS011;13410;52.114;5.718;2023-04-24T07:24:55;12.45;;;7.28;;
25503;SDS011;13410;52.114;5.718;2023-04-24T07:27:20;12.25;;;7.25;;
25503;SDS011;13410;52.114;5.718;2023-04-24T07:29:46;13.90;;;7.85;;
25503;SDS011;13410;52.114;5.718;2023-04-24T07:32:11;13.65;;;8.43;;
25503;SDS011;13410;52.114;5.718;2023-04-24T07:34:37;15.77;;;9.23;;
25503;SDS011;13410;52.114;5.718;2023-04-24T07:37:03;18.98;;;10.25;;
25503;SDS011;13410;52.114;5.718;2023-04-24T07:39:28;16.98;;;10.60;;
25503;SDS011;13410;52.114;5.718;2023-04-24T07:41:54;16.20;;;10.75;;
25503;SDS011;13410;52.114;5.718;2023-04-24T07:44:19;22.60;;;11.48;;
25503;SDS011;13410;52.114;5.718;2023-04-24T07:46:45;15.68;;;10.90;;
25503;SDS011;13410;52.114;5.718;2023-04-24T07:49:11;20.02;;;12.13;;
25503;SDS011;13410;52.114;5.718;2023-04-24T07:51:36;19.58;;;12.13;;
25503;SDS011;13410;52.114;5.718;2023-04-24T07:54:03;18.55;;;11.10;;
25503;SDS011;13410;52.114;5.718;2023-04-24T07:56:32;17.52;;;10.70;;
25503;SDS011;13410;52.114;5.718;2023-04-24T07:58:58;17.38;;;10.77;;
25503;SDS011;13410;52.114;5.718;2023-04-24T08:01:24;20.90;;;11.13;;
25503;SDS011;13410;52.114;5.718;2023-04-24T08:03:50;18.52;;;10.77;;
25503;SDS011;13410;52.114;5.718;2023-04-24T08:06:16;17.50;;;10.45;;
25503;SDS011;13410;52.114;5.718;2023-04-24T08:08:42;20.65;;;11.30;;
25503;SDS011;13410;52.114;5.718;2023-04-24T08:11:07;19.08;;;11.52;;
25503;SDS011;13410;52.114;5.718;2023-04-24T08:13:33;19.50;;;12.18;;
25503;SDS011;13410;52.114;5.718;2023-04-24T08:15:58;22.38;;;12.35;;
25503;SDS011;13410;52.114;5.718;2023-04-24T08:18:24;25.58;;;15.77;;
25503;SDS011;13410;52.114;5.718;2023-04-24T08:20:50;23.60;;;14.52;;
25503;SDS011;13410;52.114;5.718;2023-04-24T08:23:15;20.85;;;13.32;;
25503;SDS011;13410;52.114;5.718;2023-04-24T08:25:41;26.05;;;16.92;;
25503;SDS011;13410;52.114;5.718;2023-04-24T08:28:06;19.58;;;12.10;;
25503;SDS011;13410;52.114;5.718;2023-04-24T08:30:34;21.67;;;12.20;;
25503;SDS011;13410;52.114;5.718;2023-04-24T08:33:00;22.80;;;12.95;;
25503;SDS011;13410;52.114;5.718;2023-04-24T08:35:25;19.33;;;11.43;;
25503;SDS011;13410;52.114;5.718;2023-04-24T08:37:52;19.65;;;11.52;;
25503;SDS011;13410;52.114;5.718;2023-04-24T08:40:18;17.73;;;11.15;;
25503;SDS011;13410;52.114;5.718;2023-04-24T08:42:53;18.25;;;10.88;;
25503;SDS011;13410;52.114;5.718;2023-04-24T08:45:20;20.25;;;11.02;;
25503;SDS011;13410;52.114;5.718;2023-04-24T08:47:46;14.38;;;7.90;;
25503;SDS011;13410;52.114;5.718;2023-04-24T08:50:14;14.23;;;7.68;;
25503;SDS011;13410;52.114;5.718;2023-04-24T08:52:41;13.77;;;5.95;;
25503;SDS011;13410;52.114;5.718;2023-04-24T08:55:07;14.90;;;5.72;;
25503;SDS011;13410;52.114;5.718;2023-04-24T08:57:33;13.80;;;5.55;;
25503;SDS011;13410;52.114;5.718;2023-04-24T09:00:00;12.20;;;5.95;;
25503;SDS011;13410;52.114;5.718;2023-04-24T09:02:26;11.75;;;4.97;;
25503;SDS011;13410;52.114;5.718;2023-04-24T09:04:53;11.07;;;5.20;;
25503;SDS011;13410;52.114;5.718;2023-04-24T09:07:22;9.05;;;4.07;;
25503;SDS011;13410;52.114;5.718;2023-04-24T09:09:50;12.30;;;4.68;;
25503;SDS011;13410;52.114;5.718;2023-04-24T09:12:17;16.20;;;5.68;;
25503;SDS011;13410;52.114;5.718;2023-04-24T09:14:44;16.17;;;5.93;;
25503;SDS011;13410;52.114;5.718;2023-04-24T09:17:10;14.75;;;6.30;;
25503;SDS011;13410;52.114;5.718;2023-04-24T09:19:36;17.35;;;5.90;;
25503;SDS011;13410;52.114;5.718;2023-04-24T09:22:05;11.05;;;5.32;;
25503;SDS011;13410;52.114;5.718;2023-04-24T09:24:32;14.95;;;5.63;;
25503;SDS011;13410;52.114;5.718;2023-04-24T09:26:58;17.13;;;6.70;;
25503;SDS011;13410;52.114;5.718;2023-04-24T09:29:26;15.02;;;6.30;;
25503;SDS011;13410;52.114;5.718;2023-04-24T09:31:52;23.25;;;9.70;;
25503;SDS011;13410;52.114;5.718;2023-04-24T09:34:21;17.00;;;6.88;;
25503;SDS011;13410;52.114;5.718;2023-04-24T09:36:48;12.55;;;4.40;;
25503;SDS011;13410;52.114;5.718;2023-04-24T09:39:15;13.40;;;4.90;;
25503;SDS011;13410;52.114;5.718;2023-04-24T09:41:51;9.80;;;3.47;;
25503;SDS011;13410;52.114;5.718;2023-04-24T09:44:19;10.65;;;3.35;;
25503;SDS011;13410;52.114;5.718;2023-04-24T09:49:25;11.60;;;3.40;;
25503;SDS011;13410;52.114;5.718;2023-04-24T09:52:01;10.43;;;2.85;;
25503;SDS011;13410;52.114;5.718;2023-04-24T09:54:28;9.90;;;3.05;;
25503;SDS011;13410;52.114;5.718;2023-04-24T09:56:54;10.95;;;3.22;;
25503;SDS011;13410;52.114;5.718;2023-04-24T09:59:21;7.10;;;3.08;;
25503;SDS011;13410;52.114;5.718;2023-04-24T10:01:47;10.00;;;3.13;;
25503;SDS011;13410;52.114;5.718;2023-04-24T10:04:17;16.90;;;3.45;;
25503;SDS011;13410;52.114;5.718;2023-04-24T10:06:45;10.60;;;3.08;;
25503;SDS011;13410;52.114;5.718;2023-04-24T10:09:11;11.30;;;4.55;;
25503;SDS011;13410;52.114;5.718;2023-04-24T10:11:41;12.90;;;3.67;;
25503;SDS011;13410;52.114;5.718;2023-04-24T10:14:09;13.85;;;6.22;;
25503;SDS011;13410;52.114;5.718;2023-04-24T10:16:37;16.70;;;6.38;;
25503;SDS011;13410;52.114;5.718;2023-04-24T10:19:04;11.07;;;3.45;;
25503;SDS011;13410;52.114;5.718;2023-04-24T10:21:30;11.48;;;3.22;;
25503;SDS011;13410;52.114;5.718;2023-04-24T10:23:56;9.05;;;3.45;;
25503;SDS011;13410;52.114;5.718;2023-04-24T10:26:22;7.85;;;2.60;;
25503;SDS011;13410;52.114;5.718;2023-04-24T10:28:48;11.73;;;2.90;;
25503;SDS011;13410;52.114;5.718;2023-04-24T10:31:14;7.28;;;3.33;;
25503;SDS011;13410;52.114;5.718;2023-04-24T10:33:43;10.95;;;3.40;;
25503;SDS011;13410;52.114;5.718;2023-04-24T10:36:11;11.30;;;3.65;;
25503;SDS011;13410;52.114;5.718;2023-04-24T10:38:39;10.55;;;3.47;;
25503;SDS011;13410;52.114;5.718;2023-04-24T10:41:07;13.25;;;4.30;;
25503;SDS011;13410;52.114;5.718;2023-04-24T10:43:34;12.25;;;5.63;;
25503;SDS011;13410;52.114;5.718;2023-04-24T10:46:01;11.18;;;3.30;;
25503;SDS011;13410;52.114;5.718;2023-04-24T10:48:28;10.77;;;4.00;;
25503;SDS011;13410;52.114;5.718;2023-04-24T10:50:54;8.15;;;3.05;;
25503;SDS011;13410;52.114;5.718;2023-04-24T10:53:20;8.98;;;2.70;;
25503;SDS011;13410;52.114;5.718;2023-04-24T10:56:15;4.47;;;1.98;;
25503;SDS011;13410;52.114;5.718;2023-04-24T11:01:05;11.70;;;2.92;;
25503;SDS011;13410;52.114;5.718;2023-04-24T11:03:31;6.15;;;1.83;;
25503;SDS011;13410;52.114;5.718;2023-04-24T11:06:00;6.97;;;2.38;;
25503;SDS011;13410;52.114;5.718;2023-04-24T11:08:42;4.75;;;1.30;;
25503;SDS011;13410;52.114;5.718;2023-04-24T11:11:14;3.95;;;1.60;;
25503;SDS011;13410;52.114;5.718;2023-04-24T11:16:26;4.82;;;1.45;;
25503;SDS011;13410;52.114;5.718;2023-04-24T11:19:18;5.28;;;2.80;;
25503;SDS011;13410;52.114;5.718;2023-04-24T11:21:57;3.35;;;1.38;;
25503;SDS011;13410;52.114;5.718;2023-04-24T11:24:48;5.25;;;1.95;;
25503;SDS011;13410;52.114;5.718;2023-04-24T11:27:16;4.68;;;1.67;;
25503;SDS011;13410;52.114;5.718;2023-04-24T11:29:46;2.97;;;1.33;;
25503;SDS011;13410;52.114;5.718;2023-04-24T11:32:19;5.88;;;2.95;;
25503;SDS011;13410;52.114;5.718;2023-04-24T11:34:49;6.40;;;1.90;;
25503;SDS011;13410;52.114;5.718;2023-04-24T11:37:23;8.52;;;3.95;;
25503;SDS011;13410;52.114;5.718;2023-04-24T11:39:52;3.13;;;1.30;;
25503;SDS011;13410;52.114;5.718;2023-04-24T11:42:18;8.15;;;3.65;;
25503;SDS011;13410;52.114;5.718;2023-04-24T11:44:46;6.55;;;3.20;;
25503;SDS011;13410;52.114;5.718;2023-04-24T11:47:12;8.75;;;3.88;;
25503;SDS011;13410;52.114;5.718;2023-04-24T11:49:38;8.32;;;2.75;;
25503;SDS011;13410;52.114;5.718;2023-04-24T11:52:04;6.03;;;2.70;;
25503;SDS011;13410;52.114;5.718;2023-04-24T11:54:30;6.20;;;3.05;;
25503;SDS011;13410;52.114;5.718;2023-04-24T11:56:56;4.65;;;1.70;;
25503;SDS011;13410;52.114;5.718;2023-04-24T11:59:22;2.65;;;1.50;;
25503;SDS011;13410;52.114;5.718;2023-04-24T12:01:48;11.50;;;4.03;;
25503;SDS011;13410;52.114;5.718;2023-04-24T12:04:15;5.20;;;1.50;;
25503;SDS011;13410;52.114;5.718;2023-04-24T12:07:01;7.03;;;2.35;;
25503;SDS011;13410;52.114;5.718;2023-04-24T12:12:12;5.07;;;2.22;;
25503;SDS011;13410;52.114;5.718;2023-04-24T12:15:06;3.95;;;2.00;;
25503;SDS011;13410;52.114;5.718;2023-04-24T12:17:31;8.93;;;2.83;;
25503;SDS011;13410;52.114;5.718;2023-04-24T12:19:59;5.22;;;1.90;;
25503;SDS011;13410;52.114;5.718;2023-04-24T12:22:26;5.60;;;1.73;;
25503;SDS011;13410;52.114;5.718;2023-04-24T12:24:55;4.10;;;1.60;;
25503;SDS011;13410;52.114;5.718;2023-04-24T12:27:22;2.55;;;1.58;;
25503;SDS011;13410;52.114;5.718;2023-04-24T12:30:09;5.28;;;1.60;;
25503;SDS011;13410;52.114;5.718;2023-04-24T12:32:40;3.70;;;1.60;;
25503;SDS011;13410;52.114;5.718;2023-04-24T12:35:14;4.00;;;1.60;;
25503;SDS011;13410;52.114;5.718;2023-04-24T12:37:45;4.40;;;1.10;;
25503;SDS011;13410;52.114;5.718;2023-04-24T12:40:11;5.22;;;3.28;;
25503;SDS011;13410;52.114;5.718;2023-04-24T12:45:26;3.65;;;2.90;;
25503;SDS011;13410;52.114;5.718;2023-04-24T12:47:53;7.03;;;3.15;;
25503;SDS011;13410;52.114;5.718;2023-04-24T12:50:19;6.88;;;3.58;;
25503;SDS011;13410;52.114;5.718;2023-04-24T12:52:44;7.32;;;2.60;;
25503;SDS011;13410;52.114;5.718;2023-04-24T12:55:10;3.60;;;1.60;;
25503;SDS011;13410;52.114;5.718;2023-04-24T12:57:37;6.43;;;1.65;;
25503;SDS011;13410;52.114;5.718;2023-04-24T13:00:05;6.47;;;1.90;;
25503;SDS011;13410;52.114;5.718;2023-04-24T13:02:32;6.82;;;2.22;;
25503;SDS011;13410;52.114;5.718;2023-04-24T13:04:58;10.23;;;4.28;;
25503;SDS011;13410;52.114;5.718;2023-04-24T13:07:25;9.77;;;3.00;;
25503;SDS011;13410;52.114;5.718;2023-04-24T13:09:51;5.63;;;3.13;;
25503;SDS011;13410;52.114;5.718;2023-04-24T13:12:18;6.57;;;2.15;;
25503;SDS011;13410;52.114;5.718;2023-04-24T13:14:44;7.70;;;2.15;;
25503;SDS011;13410;52.114;5.718;2023-04-24T13:17:10;6.82;;;2.05;;
25503;SDS011;13410;52.114;5.718;2023-04-24T13:19:38;6.38;;;2.10;;
25503;SDS011;13410;52.114;5.718;2023-04-24T13:22:04;8.88;;;2.17;;
25503;SDS011;13410;52.114;5.718;2023-04-24T13:24:31;6.75;;;1.55;;
25503;SDS011;13410;52.114;5.718;2023-04-24T13:26:57;7.40;;;2.17;;
25503;SDS011;13410;52.114;5.718;2023-04-24T13:29:23;7.78;;;2.10;;
25503;SDS011;13410;52.114;5.718;2023-04-24T13:31:52;9.50;;;2.50;;
25503;SDS011;13410;52.114;5.718;2023-04-24T13:34:25;8.70;;;2.55;;
25503;SDS011;13410;52.114;5.718;2023-04-24T13:36:52;9.30;;;4.00;;
25503;SDS011;13410;52.114;5.718;2023-04-24T13:39:19;10.15;;;3.63;;
25503;SDS011;13410;52.114;5.718;2023-04-24T13:41:44;9.73;;;3.92;;
25503;SDS011;13410;52.114;5.718;2023-04-24T13:44:12;11.52;;;3.25;;
25503;SDS011;13410;52.114;5.718;2023-04-24T13:46:37;10.75;;;2.83;;
25503;SDS011;13410;52.114;5.718;2023-04-24T13:49:04;6.03;;;2.50;;
25503;SDS011;13410;52.114;5.718;2023-04-24T13:51:30;10.75;;;2.97;;
25503;SDS011;13410;52.114;5.718;2023-04-24T13:53:55;10.50;;;2.58;;
25503;SDS011;13410;52.114;5.718;2023-04-24T13:56:21;11.05;;;3.40;;
25503;SDS011;13410;52.114;5.718;2023-04-24T13:58:47;11.65;;;3.80;;
25503;SDS011;13410;52.114;5.718;2023-04-24T14:01:13;13.98;;;3.88;;
25503;SDS011;13410;52.114;5.718;2023-04-24T14:03:40;14.80;;;3.45;;
25503;SDS011;13410;52.114;5.718;2023-04-24T14:06:06;9.52;;;3.40;;
25503;SDS011;13410;52.114;5.718;2023-04-24T14:08:32;8.18;;;2.30;;
25503;SDS011;13410;52.114;5.718;2023-04-24T14:10:58;10.70;;;4.20;;
25503;SDS011;13410;52.114;5.718;2023-04-24T14:13:23;11.63;;;3.10;;
25503;SDS011;13410;52.114;5.718;2023-04-24T14:15:49;13.32;;;3.97;;
25503;SDS011;13410;52.114;5.718;2023-04-24T14:18:15;15.90;;;6.25;;
25503;SDS011;13410;52.114;5.718;2023-04-24T14:20:42;17.17;;;5.47;;
25503;SDS011;13410;52.114;5.718;2023-04-24T14:23:07;15.00;;;6.05;;
25503;SDS011;13410;52.114;5.718;2023-04-24T14:25:33;17.88;;;7.43;;
25503;SDS011;13410;52.114;5.718;2023-04-24T14:27:59;17.90;;;8.55;;
25503;SDS011;13410;52.114;5.718;2023-04-24T14:30:24;17.15;;;7.25;;
25503;SDS011;13410;52.114;5.718;2023-04-24T14:32:50;14.23;;;4.50;;
25503;SDS011;13410;52.114;5.718;2023-04-24T14:35:16;13.70;;;5.40;;
25503;SDS011;13410;52.114;5.718;2023-04-24T14:37:41;16.05;;;5.18;;
25503;SDS011;13410;52.114;5.718;2023-04-24T14:40:07;13.05;;;4.60;;
25503;SDS011;13410;52.114;5.718;2023-04-24T14:42:34;11.10;;;4.07;;
25503;SDS011;13410;52.114;5.718;2023-04-24T14:45:00;12.90;;;4.15;;
25503;SDS011;13410;52.114;5.718;2023-04-24T14:47:25;14.70;;;4.15;;
25503;SDS011;13410;52.114;5.718;2023-04-24T14:49:51;10.10;;;4.00;;
25503;SDS011;13410;52.114;5.718;2023-04-24T14:52:17;11.43;;;2.85;;
25503;SDS011;13410;52.114;5.718;2023-04-24T14:54:42;12.98;;;4.05;;